Time;durP1;ratioP1;P1;durP2;ratioP2;P2;SDS_P1;SDS_P2;PMS_P1;PMS_P2;Temp;Humidity;BMP_temperature;BMP_pressure;BME280_temperature;BME280_humidity;BME280_pressure;Samples;Min_cycle;Max_cycle;Signal;HPM_P1;HPM_P2
2022/05/18 00:00:27;;;;;;;23.35;22.02;;;;;;;;;;5096493;28;20222;-70
2022/05/18 00:02:55;;;;;;;22.33;21.02;;;;;;;;;;5096132;28;20200;-71
2022/05/18 00:05:21;;;;;;;22.45;21.15;;;;;;;;;;5096842;28;20198;-71
2022/05/18 00:07:48;;;;;;;19.90;18.70;;;;;;;;;;5096372;28;20277;-71
2022/05/18 00:10:15;;;;;;;20.40;19.20;;;;;;;;;;5095771;28;20276;-71
2022/05/18 00:12:47;;;;;;;22.92;21.63;;;;;;;;;;5096298;28;20218;-70
2022/05/18 00:15:14;;;;;;;23.77;22.38;;;;;;;;;;5095854;28;20690;-70
2022/05/18 00:17:41;;;;;;;22.70;21.40;;;;;;;;;;5095900;28;20251;-70
2022/05/18 00:20:09;;;;;;;22.38;21.08;;;;;;;;;;5095822;28;20642;-70
2022/05/18 00:22:43;;;;;;;24.30;22.80;;;;;;;;;;5096091;28;20194;-70
2022/05/18 00:25:10;;;;;;;25.20;23.65;;;;;;;;;;5095798;28;20281;-71
2022/05/18 00:27:36;;;;;;;28.08;26.38;;;;;;;;;;5096381;28;20265;-71
2022/05/18 00:30:05;;;;;;;25.52;23.92;;;;;;;;;;5095631;28;20230;-70
2022/05/18 00:32:32;;;;;;;26.80;25.10;;;;;;;;;;5095571;28;20580;-70
2022/05/18 00:34:59;;;;;;;27.45;25.75;;;;;;;;;;5095537;28;20196;-70
2022/05/18 00:37:25;;;;;;;26.60;25.00;;;;;;;;;;5095494;28;20190;-70
2022/05/18 00:39:52;;;;;;;21.85;20.48;;;;;;;;;;5095468;28;20746;-71
2022/05/18 00:42:19;;;;;;;24.38;22.88;;;;;;;;;;5095735;28;20193;-69
2022/05/18 00:44:46;;;;;;;24.65;23.15;;;;;;;;;;5095660;28;20209;-69
2022/05/18 00:47:14;;;;;;;24.65;23.15;;;;;;;;;;5095295;28;20235;-70
2022/05/18 00:49:42;;;;;;;24.60;23.10;;;;;;;;;;5095217;28;20205;-69
2022/05/18 00:52:09;;;;;;;24.75;23.25;;;;;;;;;;5095229;28;20671;-70
2022/05/18 00:54:37;;;;;;;24.13;22.65;;;;;;;;;;5095496;28;20285;-70
2022/05/18 00:57:06;;;;;;;24.38;22.88;;;;;;;;;;5095110;28;20202;-70
2022/05/18 00:59:35;;;;;;;24.25;22.77;;;;;;;;;;5095121;28;20699;-70
2022/05/18 01:02:02;;;;;;;23.55;22.15;;;;;;;;;;5095291;28;20276;-70
2022/05/18 01:04:30;;;;;;;23.90;22.50;;;;;;;;;;5094910;28;20671;-70
2022/05/18 01:07:01;;;;;;;24.75;23.25;;;;;;;;;;5095130;28;20316;-70
2022/05/18 01:09:29;;;;;;;25.65;24.15;;;;;;;;;;5095469;28;20285;-70
2022/05/18 01:11:56;;;;;;;21.27;19.98;;;;;;;;;;5095276;28;20226;-70
2022/05/18 01:14:24;;;;;;;24.38;22.88;;;;;;;;;;5094765;28;20575;-70
2022/05/18 01:16:51;;;;;;;23.30;21.90;;;;;;;;;;5095058;28;20724;-70
2022/05/18 01:19:23;;;;;;;24.58;23.17;;;;;;;;;;5094719;28;20237;-71
2022/05/18 01:21:55;;;;;;;23.55;22.15;;;;;;;;;;5095010;28;20269;-71
2022/05/18 01:24:28;;;;;;;24.27;22.77;;;;;;;;;;5094895;28;20281;-71
2022/05/18 01:26:56;;;;;;;24.10;22.60;;;;;;;;;;5094520;28;20220;-71
2022/05/18 01:29:24;;;;;;;23.98;22.48;;;;;;;;;;5094459;28;20194;-71
2022/05/18 01:31:53;;;;;;;24.23;22.77;;;;;;;;;;5094490;28;20274;-71
2022/05/18 01:34:20;;;;;;;23.50;22.10;;;;;;;;;;5094704;28;20232;-71
2022/05/18 01:36:47;;;;;;;23.42;22.02;;;;;;;;;;5094663;28;20194;-71
2022/05/18 01:39:16;;;;;;;24.65;23.15;;;;;;;;;;5094649;28;20281;-71
2022/05/18 01:41:50;;;;;;;25.27;23.77;;;;;;;;;;5094586;28;20276;-71
2022/05/18 01:44:19;;;;;;;24.80;23.30;;;;;;;;;;5094615;28;20229;-71
2022/05/18 01:46:48;;;;;;;21.33;20.02;;;;;;;;;;5094396;28;20221;-70
2022/05/18 01:49:15;;;;;;;24.60;23.10;;;;;;;;;;5094493;28;20190;-70
2022/05/18 01:51:44;;;;;;;25.65;24.15;;;;;;;;;;5094017;28;20670;-71
2022/05/18 01:54:10;;;;;;;24.50;23.10;;;;;;;;;;5094372;28;20198;-71
2022/05/18 01:56:37;;;;;;;23.98;22.58;;;;;;;;;;5094288;28;20225;-71
2022/05/18 01:59:04;;;;;;;22.27;20.98;;;;;;;;;;5093918;28;20747;-71
2022/05/18 02:01:32;;;;;;;23.95;22.58;;;;;;;;;;5094221;28;20225;-71
2022/05/18 02:03:59;;;;;;;24.02;22.63;;;;;;;;;;5093794;28;20655;-72
2022/05/18 02:06:25;;;;;;;23.15;21.85;;;;;;;;;;5093717;28;20695;-72
2022/05/18 02:08:52;;;;;;;22.83;21.52;;;;;;;;;;5094048;28;20200;-71
2022/05/18 02:11:19;;;;;;;21.23;20.02;;;;;;;;;;5093618;28;20309;-73
2022/05/18 02:13:46;;;;;;;22.98;21.67;;;;;;;;;;5093641;28;20607;-72
2022/05/18 02:16:13;;;;;;;23.75;22.42;;;;;;;;;;5093088;28;20232;-71
2022/05/18 02:18:42;;;;;;;22.27;21.00;;;;;;;;;;5093574;28;20228;-72
2022/05/18 02:21:10;;;;;;;18.83;17.73;;;;;;;;;;5093470;28;20289;-72
2022/05/18 02:23:36;;;;;;;22.50;21.20;;;;;;;;;;5093485;28;20229;-72
2022/05/18 02:26:06;;;;;;;21.33;20.13;;;;;;;;;;5093367;28;20734;-72
2022/05/18 02:28:32;;;;;;;22.75;21.45;;;;;;;;;;5093310;28;20667;-72
2022/05/18 02:30:59;;;;;;;22.65;21.35;;;;;;;;;;5093619;28;20229;-72
2022/05/18 02:33:26;;;;;;;21.98;20.77;;;;;;;;;;5093234;28;20194;-72
2022/05/18 02:35:54;;;;;;;21.58;20.38;;;;;;;;;;5093215;28;20240;-72
2022/05/18 02:38:21;;;;;;;22.48;21.17;;;;;;;;;;5093473;28;20233;-72
2022/05/18 02:40:47;;;;;;;21.67;20.45;;;;;;;;;;5093459;28;20243;-73
2022/05/18 02:43:14;;;;;;;21.02;19.83;;;;;;;;;;5093119;28;20288;-72
2022/05/18 02:45:41;;;;;;;20.48;19.27;;;;;;;;;;5093335;28;20277;-72
2022/05/18 02:48:08;;;;;;;21.20;20.00;;;;;;;;;;5093209;28;20261;-72
2022/05/18 02:50:35;;;;;;;22.05;20.75;;;;;;;;;;5093271;28;20196;-71
2022/05/18 02:53:03;;;;;;;23.50;22.20;;;;;;;;;;5093237;28;20582;-72
2022/05/18 02:58:14;;;;;;;18.95;17.85;;;;;;;;;;5093229;28;20193;-71
2022/05/18 03:00:40;;;;;;;22.92;21.63;;;;;;;;;;5093048;28;20194;-72
2022/05/18 03:03:07;;;;;;;22.50;21.20;;;;;;;;;;5092731;28;20194;-71
2022/05/18 03:05:34;;;;;;;20.95;19.75;;;;;;;;;;5092996;28;20238;-72
2022/05/18 03:08:00;;;;;;;21.38;20.15;;;;;;;;;;5092520;28;20754;-72
2022/05/18 03:10:29;;;;;;;19.38;18.27;;;;;;;;;;5092447;28;20655;-71
2022/05/18 03:12:55;;;;;;;18.23;17.23;;;;;;;;;;5092898;28;20217;-71
2022/05/18 03:15:22;;;;;;;19.10;18.00;;;;;;;;;;5092545;28;20216;-72
2022/05/18 03:17:49;;;;;;;19.10;18.00;;;;;;;;;;5092770;28;20284;-71
2022/05/18 03:25:56;;;;;;;17.75;16.75;;;;;;;;;;5010575;28;20196;-72
2022/05/18 03:28:22;;;;;;;16.40;15.50;;;;;;;;;;5009514;28;20228;-71
2022/05/18 03:30:49;;;;;;;17.20;16.30;;;;;;;;;;5010561;28;20203;-71
2022/05/18 03:33:16;;;;;;;15.77;14.98;;;;;;;;;;5010450;28;20198;-71
2022/05/18 03:35:42;;;;;;;16.38;15.57;;;;;;;;;;5010349;28;20287;-71
2022/05/18 03:38:09;;;;;;;16.63;15.82;;;;;;;;;;5010558;28;20287;-71
2022/05/18 03:40:37;;;;;;;17.40;16.50;;;;;;;;;;5010301;28;20313;-71
2022/05/18 03:43:05;;;;;;;16.80;16.00;;;;;;;;;;5010295;28;20547;-70
2022/05/18 03:45:33;;;;;;;17.10;16.20;;;;;;;;;;5010267;28;20874;-71
2022/05/18 03:48:00;;;;;;;15.88;15.10;;;;;;;;;;5010195;28;20298;-71
2022/05/18 03:50:28;;;;;;;16.23;15.43;;;;;;;;;;5010327;28;20197;-70
2022/05/18 03:52:55;;;;;;;15.77;15.07;;;;;;;;;;5010257;28;20579;-70
2022/05/18 03:55:22;;;;;;;15.60;14.90;;;;;;;;;;5010176;28;20276;-71
2022/05/18 03:57:49;;;;;;;15.50;14.80;;;;;;;;;;5084154;28;20200;-71
2022/05/18 04:00:19;;;;;;;15.82;15.13;;;;;;;;;;5092096;28;20663;-71
2022/05/18 04:02:47;;;;;;;15.48;14.77;;;;;;;;;;5092304;28;20624;-70
2022/05/18 04:05:15;;;;;;;15.70;15.00;;;;;;;;;;5092266;28;20198;-70
2022/05/18 04:07:41;;;;;;;15.13;14.52;;;;;;;;;;5092199;28;20225;-71
2022/05/18 04:10:09;;;;;;;15.50;14.80;;;;;;;;;;5092206;28;20200;-71
2022/05/18 04:12:36;;;;;;;14.93;14.32;;;;;;;;;;5091898;28;20194;-70
2022/05/18 04:15:03;;;;;;;15.38;14.77;;;;;;;;;;5092151;28;20277;-71
2022/05/18 04:17:31;;;;;;;15.50;14.80;;;;;;;;;;5092127;28;20202;-70
2022/05/18 04:19:57;;;;;;;16.10;15.30;;;;;;;;;;5091825;28;20194;-71
2022/05/18 04:22:24;;;;;;;16.10;15.40;;;;;;;;;;5091825;28;20849;-71
2022/05/18 04:24:51;;;;;;;15.90;15.20;;;;;;;;;;5091759;28;20194;-71
2022/05/18 04:27:18;;;;;;;16.10;15.40;;;;;;;;;;5091676;28;20225;-72
2022/05/18 04:29:45;;;;;;;15.80;15.10;;;;;;;;;;5091725;28;20196;-70
2022/05/18 04:32:11;;;;;;;15.57;14.88;;;;;;;;;;5091681;28;20755;-70
2022/05/18 04:34:40;;;;;;;15.05;14.40;;;;;;;;;;5092003;28;20281;-70
2022/05/18 04:37:06;;;;;;;14.90;14.30;;;;;;;;;;5091990;28;20205;-70
2022/05/18 04:39:33;;;;;;;14.60;14.00;;;;;;;;;;5093569;28;20189;-69
2022/05/18 04:42:00;;;;;;;14.73;14.13;;;;;;;;;;5095427;28;20204;-70
2022/05/18 04:44:26;;;;;;;14.93;14.23;;;;;;;;;;5095804;28;20194;-72
2022/05/18 04:46:55;;;;;;;15.25;14.55;;;;;;;;;;5095246;28;20280;-71
2022/05/18 04:49:22;;;;;;;14.93;14.23;;;;;;;;;;5095293;28;20198;-72
2022/05/18 04:51:50;;;;;;;15.02;14.32;;;;;;;;;;5095213;28;20679;-72
2022/05/18 04:54:17;;;;;;;15.18;14.48;;;;;;;;;;5095216;28;20195;-72
2022/05/18 04:56:44;;;;;;;16.30;15.50;;;;;;;;;;5095456;28;20190;-72
2022/05/18 04:59:12;;;;;;;16.20;15.40;;;;;;;;;;5095077;28;20204;-72
2022/05/18 05:01:39;;;;;;;16.63;15.82;;;;;;;;;;5095382;28;20239;-72
2022/05/18 05:04:09;;;;;;;16.58;15.77;;;;;;;;;;5095019;28;20200;-71
2022/05/18 05:06:36;;;;;;;16.67;15.88;;;;;;;;;;5095321;28;20186;-72
2022/05/18 05:09:04;;;;;;;16.30;15.60;;;;;;;;;;5094762;28;20317;-72
2022/05/18 05:11:31;;;;;;;15.68;14.98;;;;;;;;;;5094662;28;20738;-72
2022/05/18 05:13:57;;;;;;;15.27;14.57;;;;;;;;;;5095130;28;20233;-72
2022/05/18 05:16:26;;;;;;;15.13;14.52;;;;;;;;;;5094797;28;20284;-72
2022/05/18 05:18:53;;;;;;;15.60;14.90;;;;;;;;;;5095052;28;20198;-72
2022/05/18 05:21:19;;;;;;;15.15;14.35;;;;;;;;;;5094683;28;20202;-71
2022/05/18 05:23:46;;;;;;;14.95;14.15;;;;;;;;;;5095027;28;20205;-73
2022/05/18 05:26:15;;;;;;;14.57;13.88;;;;;;;;;;5094971;28;20190;-73
2022/05/18 05:28:41;;;;;;;14.80;14.00;;;;;;;;;;5094474;28;20230;-72
2022/05/18 05:31:09;;;;;;;15.13;14.32;;;;;;;;;;5094568;28;20194;-72
2022/05/18 05:33:36;;;;;;;15.63;14.73;;;;;;;;;;5094457;28;20284;-72
2022/05/18 05:36:03;;;;;;;15.52;14.63;;;;;;;;;;5094727;28;20194;-72
2022/05/18 05:38:29;;;;;;;17.83;16.73;;;;;;;;;;5094679;28;20254;-72
2022/05/18 05:40:56;;;;;;;17.42;16.35;;;;;;;;;;5094389;28;20197;-69
2022/05/18 05:43:24;;;;;;;17.95;17.05;;;;;;;;;;5094255;28;20229;-72
2022/05/18 05:45:55;;;;;;;18.70;17.80;;;;;;;;;;5094263;28;20284;-74
2022/05/18 05:48:21;;;;;;;18.60;17.60;;;;;;;;;;5094145;28;20304;-76
2022/05/18 05:50:48;;;;;;;18.23;17.33;;;;;;;;;;5093183;28;20572;-76
2022/05/18 05:53:15;;;;;;;17.50;16.60;;;;;;;;;;5094393;28;20276;-76
2022/05/18 05:55:41;;;;;;;17.52;16.63;;;;;;;;;;5094266;28;20193;-74
2022/05/18 05:58:08;;;;;;;16.98;16.17;;;;;;;;;;5093994;28;20190;-76
2022/05/18 06:00:36;;;;;;;17.00;16.20;;;;;;;;;;5094250;28;20198;-77
2022/05/18 06:03:06;;;;;;;16.27;15.57;;;;;;;;;;5093874;28;20190;-76
2022/05/18 06:05:32;;;;;;;15.90;15.30;;;;;;;;;;5093827;28;20197;-79
2022/05/18 06:07:59;;;;;;;15.05;14.45;;;;;;;;;;5093691;28;20308;-79
2022/05/18 06:10:26;;;;;;;14.82;14.23;;;;;;;;;;5093766;28;20248;-76
2022/05/18 06:12:58;;;;;;;14.65;14.05;;;;;;;;;;5093706;28;20182;-79
2022/05/18 06:15:25;;;;;;;14.90;14.30;;;;;;;;;;5093953;28;20202;-78
2022/05/18 06:17:53;;;;;;;15.88;15.27;;;;;;;;;;5093589;28;20198;-79
2022/05/18 06:20:20;;;;;;;16.40;15.80;;;;;;;;;;5093566;28;20288;-80
2022/05/18 06:22:46;;;;;;;15.38;14.77;;;;;;;;;;5093536;28;20250;-76
2022/05/18 06:25:15;;;;;;;14.40;13.90;;;;;;;;;;5093428;28;20196;-78
2022/05/18 06:27:42;;;;;;;14.35;13.85;;;;;;;;;;5093625;28;20309;-79
2022/05/18 06:30:09;;;;;;;13.90;13.40;;;;;;;;;;5093323;28;20198;-77
2022/05/18 06:32:37;;;;;;;13.40;12.90;;;;;;;;;;5093266;28;20950;-79
2022/05/18 06:35:05;;;;;;;12.68;12.18;;;;;;;;;;5093602;28;20215;-79
2022/05/18 06:37:32;;;;;;;13.10;12.60;;;;;;;;;;5093205;28;20678;-79
2022/05/18 06:39:59;;;;;;;13.82;13.23;;;;;;;;;;5093477;28;20194;-79
2022/05/18 06:42:26;;;;;;;15.48;14.70;;;;;;;;;;5093426;28;20194;-77
2022/05/18 06:44:53;;;;;;;16.30;15.40;;;;;;;;;;5093088;28;20254;-77
2022/05/18 06:47:19;;;;;;;15.95;15.18;;;;;;;;;;5093376;28;20276;-78
2022/05/18 06:49:47;;;;;;;15.70;15.00;;;;;;;;;;5093187;28;20312;-78
2022/05/18 06:52:15;;;;;;;15.88;15.18;;;;;;;;;;5092930;28;20288;-78
2022/05/18 06:54:41;;;;;;;15.65;14.95;;;;;;;;;;5093162;28;20205;-76
2022/05/18 06:57:08;;;;;;;16.30;15.50;;;;;;;;;;5093219;28;20190;-77
2022/05/18 06:59:35;;;;;;;16.00;15.20;;;;;;;;;;5092781;28;20193;-77
2022/05/18 07:02:01;;;;;;;15.95;15.25;;;;;;;;;;5093002;28;20256;-77
2022/05/18 07:04:28;;;;;;;17.20;16.30;;;;;;;;;;5093039;28;20243;-77
2022/05/18 07:06:55;;;;;;;17.60;16.70;;;;;;;;;;5092623;28;20672;-78
2022/05/18 07:09:24;;;;;;;18.50;17.40;;;;;;;;;;5092947;28;20261;-78
2022/05/18 07:11:51;;;;;;;18.90;17.80;;;;;;;;;;5092448;28;20323;-77
2022/05/18 07:14:19;;;;;;;19.25;18.05;;;;;;;;;;5092851;28;20221;-76
2022/05/18 07:16:46;;;;;;;19.30;18.10;;;;;;;;;;5092615;28;20284;-76
2022/05/18 07:19:13;;;;;;;18.80;17.70;;;;;;;;;;5092808;28;20197;-76
2022/05/18 07:21:39;;;;;;;19.05;17.90;;;;;;;;;;5092470;28;20303;-76
2022/05/18 07:24:06;;;;;;;19.95;18.65;;;;;;;;;;5092439;28;20577;-76
2022/05/18 07:26:35;;;;;;;18.85;17.65;;;;;;;;;;5093309;28;20189;-79
2022/05/18 07:29:02;;;;;;;19.80;18.60;;;;;;;;;;5092273;28;20229;-75
2022/05/18 07:31:29;;;;;;;20.13;18.83;;;;;;;;;;5092612;28;20193;-73
2022/05/18 07:33:56;;;;;;;20.35;19.05;;;;;;;;;;5092646;28;20197;-74
2022/05/18 07:36:23;;;;;;;20.45;19.10;;;;;;;;;;5092228;28;20276;-73
2022/05/18 07:38:50;;;;;;;21.02;19.73;;;;;;;;;;5092238;28;20285;-76
2022/05/18 07:41:17;;;;;;;21.05;19.75;;;;;;;;;;5092191;28;20233;-80
2022/05/18 07:43:45;;;;;;;19.95;18.75;;;;;;;;;;5092186;28;20198;-76
2022/05/18 07:46:12;;;;;;;20.10;18.90;;;;;;;;;;5092459;28;20233;-75
2022/05/18 07:48:39;;;;;;;20.50;19.30;;;;;;;;;;5092014;28;20226;-73
2022/05/18 07:51:06;;;;;;;20.88;19.67;;;;;;;;;;5092127;28;20232;-74
2022/05/18 07:53:33;;;;;;;19.90;18.80;;;;;;;;;;5092368;28;20252;-75
2022/05/18 07:56:00;;;;;;;20.65;19.45;;;;;;;;;;5092061;28;20221;-74
2022/05/18 07:58:26;;;;;;;20.48;19.40;;;;;;;;;;5092060;28;20202;-75
2022/05/18 08:00:54;;;;;;;20.00;19.00;;;;;;;;;;5092263;28;20189;-74
2022/05/18 08:03:21;;;;;;;19.42;18.42;;;;;;;;;;5091974;28;20194;-75
2022/05/18 08:05:48;;;;;;;19.10;18.10;;;;;;;;;;5092012;28;20724;-75
2022/05/18 08:08:16;;;;;;;19.30;18.30;;;;;;;;;;5092197;28;20320;-74
2022/05/18 08:16:12;;;;;;;18.88;17.98;;;;;;;;;;5096330;28;20655;-74
2022/05/18 08:18:39;;;;;;;20.42;19.50;;;;;;;;;;5096505;28;20229;-73
2022/05/18 08:21:06;;;;;;;20.90;19.90;;;;;;;;;;5095891;28;20229;-73
2022/05/18 08:23:32;;;;;;;19.30;18.40;;;;;;;;;;5096146;28;20193;-75
2022/05/18 08:25:59;;;;;;;17.25;16.35;;;;;;;;;;5095835;28;20229;-74
2022/05/18 08:28:26;;;;;;;16.50;15.70;;;;;;;;;;5095991;28;20264;-72
2022/05/18 08:30:55;;;;;;;16.98;15.98;;;;;;;;;;5095644;28;20621;-73
2022/05/18 08:33:24;;;;;;;18.83;17.63;;;;;;;;;;5095937;28;20251;-74
2022/05/18 08:35:50;;;;;;;16.83;15.82;;;;;;;;;;5095592;28;20190;-73
2022/05/18 08:38:17;;;;;;;16.70;15.70;;;;;;;;;;5095986;28;20311;-75
2022/05/18 08:40:46;;;;;;;16.95;15.95;;;;;;;;;;5095863;28;20194;-74
2022/05/18 08:43:15;;;;;;;16.10;15.20;;;;;;;;;;5095819;28;20198;-75
2022/05/18 08:45:46;;;;;;;15.90;15.00;;;;;;;;;;5095673;28;20190;-77
2022/05/18 08:48:20;;;;;;;16.30;15.50;;;;;;;;;;5095356;28;20193;-72
2022/05/18 08:50:48;;;;;;;14.90;14.20;;;;;;;;;;5095644;28;20186;-75
2022/05/18 08:53:28;;;;;;;15.38;14.60;;;;;;;;;;5095294;28;20198;-75
2022/05/18 08:56:01;;;;;;;15.00;14.30;;;;;;;;;;5095245;28;20268;-74
2022/05/18 08:58:36;;;;;;;15.30;14.70;;;;;;;;;;5095486;28;20194;-75
2022/05/18 09:01:06;;;;;;;17.60;16.90;;;;;;;;;;5095182;28;20189;-74
2022/05/18 09:03:34;;;;;;;17.45;16.65;;;;;;;;;;5095039;28;20202;-73
2022/05/18 09:06:05;;;;;;;17.40;16.70;;;;;;;;;;5095320;28;20225;-75
2022/05/18 09:08:34;;;;;;;16.50;15.80;;;;;;;;;;5095339;28;20759;-74
2022/05/18 09:11:03;;;;;;;14.98;14.38;;;;;;;;;;5094988;28;20303;-76
2022/05/18 09:13:30;;;;;;;15.48;14.88;;;;;;;;;;5094951;28;20190;-77
2022/05/18 09:16:02;;;;;;;14.27;13.77;;;;;;;;;;5094828;28;20233;-73
2022/05/18 09:18:32;;;;;;;14.15;13.65;;;;;;;;;;5095148;28;20622;-79
2022/05/18 09:21:03;;;;;;;15.20;14.60;;;;;;;;;;5095065;28;20230;-77
2022/05/18 09:23:48;;;;;;;15.40;14.80;;;;;;;;;;5094698;28;20672;-78
2022/05/18 09:26:29;;;;;;;15.75;15.15;;;;;;;;;;5093317;28;20193;-73
2022/05/18 09:29:04;;;;;;;15.00;14.40;;;;;;;;;;5094864;28;20206;-73
2022/05/18 09:31:35;;;;;;;14.95;14.35;;;;;;;;;;5094602;28;20196;-75
2022/05/18 09:34:20;;;;;;;15.50;14.90;;;;;;;;;;5094601;28;20204;-73
2022/05/18 09:36:58;;;;;;;18.40;17.40;;;;;;;;;;5094462;28;20272;-77
2022/05/18 09:39:28;;;;;;;17.38;16.48;;;;;;;;;;5094700;28;20198;-72
2022/05/18 09:41:59;;;;;;;22.70;21.40;;;;;;;;;;5094680;28;20244;-71
2022/05/18 09:44:31;;;;;;;23.70;22.40;;;;;;;;;;5094626;28;20183;-73
2022/05/18 09:46:58;;;;;;;25.15;23.65;;;;;;;;;;5094600;28;20218;-74
2022/05/18 09:49:28;;;;;;;25.63;24.02;;;;;;;;;;5094151;28;20225;-72
2022/05/18 09:51:56;;;;;;;25.88;24.27;;;;;;;;;;5094470;28;20233;-74
2022/05/18 09:54:24;;;;;;;25.90;24.20;;;;;;;;;;5094419;28;20198;-73
2022/05/18 09:56:54;;;;;;;25.05;23.45;;;;;;;;;;5094318;28;20199;-70
2022/05/18 09:59:23;;;;;;;23.50;22.20;;;;;;;;;;5094327;28;20198;-77
2022/05/18 10:07:31;;;;;;;21.55;20.25;;;;;;;;;;5094003;28;20196;-80
2022/05/18 10:10:02;;;;;;;21.40;20.00;;;;;;;;;;5093765;28;20702;-71
2022/05/18 10:12:37;;;;;;;21.83;20.33;;;;;;;;;;5093616;28;20248;-73
2022/05/18 10:15:05;;;;;;;21.60;20.20;;;;;;;;;;5093951;28;20186;-76
2022/05/18 10:17:33;;;;;;;21.80;20.40;;;;;;;;;;5094537;28;20194;-80
2022/05/18 10:20:02;;;;;;;20.65;19.35;;;;;;;;;;5093880;28;20225;-76
2022/05/18 10:22:30;;;;;;;20.52;19.33;;;;;;;;;;5094142;28;20201;-74
2022/05/18 10:25:05;;;;;;;20.73;19.52;;;;;;;;;;5093862;28;20247;-74
2022/05/18 10:27:36;;;;;;;21.20;20.00;;;;;;;;;;5093828;28;20193;-74
2022/05/18 10:30:08;;;;;;;21.70;20.60;;;;;;;;;;5093713;28;20671;-75
2022/05/18 10:32:36;;;;;;;21.13;20.13;;;;;;;;;;5093423;28;20685;-77
2022/05/18 10:35:03;;;;;;;20.70;19.70;;;;;;;;;;5093706;28;20196;-83
2022/05/18 10:37:31;;;;;;;18.15;17.25;;;;;;;;;;5092861;28;20285;-77
2022/05/18 10:39:59;;;;;;;16.92;16.02;;;;;;;;;;5093236;28;20208;-74
2022/05/18 10:42:28;;;;;;;16.98;15.98;;;;;;;;;;5091962;28;20755;-74
2022/05/18 10:44:59;;;;;;;16.77;15.77;;;;;;;;;;5093522;28;20254;-77
2022/05/18 10:47:29;;;;;;;17.10;16.10;;;;;;;;;;5093472;28;20213;-73
2022/05/18 10:50:11;;;;;;;18.00;16.90;;;;;;;;;;5093272;28;20373;-73
2022/05/18 10:52:37;;;;;;;17.45;16.45;;;;;;;;;;5093332;28;20217;-79
2022/05/18 10:55:07;;;;;;;16.98;16.08;;;;;;;;;;5093068;28;20228;-75
2022/05/18 10:57:35;;;;;;;16.20;15.30;;;;;;;;;;5092887;28;20205;-74
2022/05/18 11:00:10;;;;;;;16.20;15.30;;;;;;;;;;5092893;28;20280;-76
2022/05/18 11:02:41;;;;;;;16.48;15.57;;;;;;;;;;5093160;28;20193;-75
2022/05/18 11:05:12;;;;;;;15.85;15.05;;;;;;;;;;5093159;28;20291;-76
2022/05/18 11:07:39;;;;;;;16.55;15.65;;;;;;;;;;5093096;28;20218;-73
2022/05/18 11:10:07;;;;;;;16.17;15.27;;;;;;;;;;5092696;28;20310;-74
2022/05/18 11:12:40;;;;;;;16.75;15.85;;;;;;;;;;5092641;28;20312;-73
2022/05/18 11:15:09;;;;;;;17.05;16.05;;;;;;;;;;5093109;28;20251;-73
2022/05/18 11:17:41;;;;;;;16.80;15.90;;;;;;;;;;5092610;28;20190;-80
2022/05/18 11:20:14;;;;;;;17.08;16.17;;;;;;;;;;5092564;28;20285;-74
2022/05/18 11:22:49;;;;;;;16.90;16.00;;;;;;;;;;5092555;28;20193;-80
2022/05/18 11:25:22;;;;;;;16.83;15.93;;;;;;;;;;5092464;28;20277;-75
2022/05/18 11:27:50;;;;;;;16.55;15.65;;;;;;;;;;5092495;28;20196;-78
2022/05/18 11:30:21;;;;;;;16.30;15.50;;;;;;;;;;5092326;28;20228;-74
2022/05/18 11:32:56;;;;;;;16.52;15.73;;;;;;;;;;5092370;28;20192;-78
2022/05/18 11:35:29;;;;;;;16.88;16.08;;;;;;;;;;5092421;28;20281;-74
2022/05/18 11:38:14;;;;;;;16.90;16.20;;;;;;;;;;5092676;28;20189;-73
2022/05/18 11:40:45;;;;;;;16.90;16.10;;;;;;;;;;5092578;28;20269;-73
2022/05/18 11:43:29;;;;;;;16.67;15.88;;;;;;;;;;5092545;28;20186;-74
2022/05/18 11:46:05;;;;;;;16.85;16.05;;;;;;;;;;5092514;28;20272;-74
2022/05/18 11:48:37;;;;;;;17.13;16.33;;;;;;;;;;5091754;28;20185;-76
2022/05/18 11:51:09;;;;;;;16.65;15.95;;;;;;;;;;5092406;28;20221;-75
2022/05/18 11:53:45;;;;;;;17.08;16.38;;;;;;;;;;5092490;28;20264;-80
2022/05/18 11:56:22;;;;;;;16.67;15.98;;;;;;;;;;5092451;28;20272;-82
2022/05/18 11:59:05;;;;;;;16.90;16.20;;;;;;;;;;5092396;28;20264;-78
2022/05/18 12:01:37;;;;;;;17.42;16.73;;;;;;;;;;5092054;28;20250;-75
2022/05/18 12:04:25;;;;;;;17.42;16.73;;;;;;;;;;5092463;28;20280;-77
2022/05/18 12:07:01;;;;;;;17.52;16.83;;;;;;;;;;5092303;28;20190;-75
2022/05/18 12:09:38;;;;;;;17.75;17.05;;;;;;;;;;5092269;28;20739;-75
2022/05/18 12:12:11;;;;;;;17.90;17.13;;;;;;;;;;5092033;28;20229;-76
2022/05/18 12:14:41;;;;;;;17.60;16.90;;;;;;;;;;5091918;28;20272;-75
2022/05/18 12:17:13;;;;;;;18.00;17.20;;;;;;;;;;5092700;28;20194;-74
2022/05/18 12:19:45;;;;;;;17.63;16.92;;;;;;;;;;5091895;28;20727;-75
2022/05/18 12:22:13;;;;;;;17.85;17.15;;;;;;;;;;5091853;28;20186;-73
2022/05/18 12:24:41;;;;;;;18.48;17.67;;;;;;;;;;5091870;28;20254;-75
2022/05/18 12:27:09;;;;;;;18.52;17.73;;;;;;;;;;5092101;28;20198;-76
2022/05/18 12:29:36;;;;;;;18.50;17.70;;;;;;;;;;5091676;28;20605;-74
2022/05/18 12:32:03;;;;;;;18.17;17.48;;;;;;;;;;5091758;28;20285;-73
2022/05/18 12:34:40;;;;;;;17.38;16.67;;;;;;;;;;5091690;28;20731;-75
2022/05/18 12:37:15;;;;;;;18.08;17.38;;;;;;;;;;5091802;28;20189;-74
2022/05/18 12:39:44;;;;;;;18.42;17.70;;;;;;;;;;5091809;28;20185;-76
2022/05/18 12:42:12;;;;;;;18.00;17.30;;;;;;;;;;5091700;28;20566;-75
2022/05/18 12:44:41;;;;;;;18.30;17.50;;;;;;;;;;5091994;28;20194;-76
2022/05/18 12:47:18;;;;;;;18.45;17.65;;;;;;;;;;5091700;28;20282;-75
2022/05/18 12:49:46;;;;;;;18.45;17.65;;;;;;;;;;5091585;28;20283;-79
2022/05/18 12:52:16;;;;;;;19.42;18.63;;;;;;;;;;5091960;28;20190;-79
2022/05/18 12:54:43;;;;;;;19.88;18.98;;;;;;;;;;5091546;28;20284;-78
2022/05/18 12:57:16;;;;;;;19.05;18.25;;;;;;;;;;5092007;28;20225;-75
2022/05/18 12:59:49;;;;;;;18.73;17.92;;;;;;;;;;5092156;28;20272;-81
2022/05/18 13:02:20;;;;;;;18.45;17.65;;;;;;;;;;5095227;28;20186;-75
2022/05/18 13:04:48;;;;;;;18.48;17.67;;;;;;;;;;5095435;28;20267;-77
2022/05/18 13:07:22;;;;;;;18.42;17.63;;;;;;;;;;5095357;28;20280;-75
2022/05/18 13:09:49;;;;;;;19.50;18.60;;;;;;;;;;5094910;28;20212;-76
2022/05/18 13:12:37;;;;;;;19.15;18.25;;;;;;;;;;5094818;28;20310;-78
2022/05/18 13:15:07;;;;;;;18.58;17.67;;;;;;;;;;5095286;28;20232;-78
2022/05/18 13:17:49;;;;;;;19.05;18.15;;;;;;;;;;5095235;28;20190;-78
2022/05/18 13:20:36;;;;;;;18.77;17.98;;;;;;;;;;5094842;28;20189;-77
2022/05/18 13:23:08;;;;;;;18.58;17.67;;;;;;;;;;5091189;28;20229;-77
2022/05/18 13:25:36;;;;;;;18.20;17.40;;;;;;;;;;5095166;28;20217;-77
2022/05/18 13:28:04;;;;;;;18.15;17.25;;;;;;;;;;5094644;28;20728;-79
2022/05/18 13:30:34;;;;;;;18.30;17.40;;;;;;;;;;5094540;28;20238;-78
2022/05/18 13:33:01;;;;;;;17.95;17.05;;;;;;;;;;5093506;28;20225;-78
2022/05/18 13:35:29;;;;;;;17.48;16.65;;;;;;;;;;5094832;28;20276;-76
2022/05/18 13:38:02;;;;;;;17.30;16.50;;;;;;;;;;5094521;28;20579;-77
2022/05/18 13:40:31;;;;;;;17.65;16.75;;;;;;;;;;5094428;28;20186;-78
2022/05/18 13:42:59;;;;;;;18.30;17.40;;;;;;;;;;5094475;28;20193;-81
2022/05/18 13:45:27;;;;;;;17.20;16.40;;;;;;;;;;5094243;28;20634;-77
2022/05/18 13:47:55;;;;;;;17.38;16.50;;;;;;;;;;5094596;28;20193;-80
2022/05/18 13:50:26;;;;;;;17.40;16.50;;;;;;;;;;5094150;28;20711;-77
2022/05/18 13:52:53;;;;;;;17.25;16.35;;;;;;;;;;5094546;28;20264;-79
2022/05/18 13:55:22;;;;;;;17.48;16.58;;;;;;;;;;5094219;28;20554;-80
2022/05/18 13:57:52;;;;;;;17.50;16.60;;;;;;;;;;5093973;28;20602;-78
2022/05/18 14:00:21;;;;;;;17.30;16.40;;;;;;;;;;5094659;28;20229;-77
2022/05/18 14:02:47;;;;;;;17.38;16.48;;;;;;;;;;5094231;28;20272;-77
2022/05/18 14:05:15;;;;;;;17.55;16.65;;;;;;;;;;5093924;28;20574;-78
2022/05/18 14:07:43;;;;;;;17.20;16.40;;;;;;;;;;5093932;28;20656;-78
2022/05/18 14:10:10;;;;;;;17.15;16.35;;;;;;;;;;5093740;28;20582;-72
2022/05/18 14:12:37;;;;;;;17.30;16.50;;;;;;;;;;5092877;28;20317;-77
2022/05/18 14:15:06;;;;;;;17.15;16.35;;;;;;;;;;5094018;28;20292;-75
2022/05/18 14:17:34;;;;;;;17.00;16.20;;;;;;;;;;5093657;28;20240;-77
2022/05/18 14:20:02;;;;;;;16.85;16.05;;;;;;;;;;5093889;28;20200;-76
2022/05/18 14:22:30;;;;;;;17.10;16.30;;;;;;;;;;5093898;28;20216;-76
2022/05/18 14:24:58;;;;;;;16.83;16.02;;;;;;;;;;5093797;28;20323;-74
2022/05/18 14:27:29;;;;;;;16.90;16.10;;;;;;;;;;5093523;28;20280;-76
2022/05/18 14:29:58;;;;;;;16.30;15.60;;;;;;;;;;5093414;28;20194;-75
2022/05/18 14:32:29;;;;;;;16.48;15.68;;;;;;;;;;5093380;28;20285;-74
2022/05/18 14:34:59;;;;;;;16.75;15.95;;;;;;;;;;5093788;28;20193;-78
2022/05/18 14:37:28;;;;;;;16.63;15.82;;;;;;;;;;5093562;28;20208;-77
2022/05/18 14:39:56;;;;;;;16.15;15.45;;;;;;;;;;5093600;28;20250;-77
2022/05/18 14:42:30;;;;;;;16.42;15.63;;;;;;;;;;5093176;28;20190;-77
2022/05/18 14:45:00;;;;;;;16.63;15.82;;;;;;;;;;5093558;28;20609;-75